BISK weather

Skógasandur Airport
Skógasandur, Southern Region, Iceland

Public forecast

Using degrees Celsius for public forecast. Weather courtesy of forecast.io.

METAR (pilot weather report)

Report is more than 6 hours old.

Closest report is Vestmannaeyjar Airport, 21.9 nm (40.6 km) WSW. Retrieved 2019/04/20 18:00 UTC (1 day ago):

BIVM 201800Z 24020KT 7500 VCSH SCT012 BKN020 06/04 Q1008

TAF (pilot weather forecast)

Closest forecast is Reykjavik Airport, 74.6 nm (138.2 km) WNW. Retrieved 2019/04/22 03:15 UTC (0 seconds ago):

TAF BIRK 220114Z 2203/2303 09008KT 9999 SCT040 TX09/2218Z TN01/2206Z TEMPO 2217/2220 SHRA BKN020CB